Аэропорт: Алматы. Алма-Ата

ICAO: UAAA

METAR:
2018/09/19 07:30
UAAA 190730Z VRB01MPS 9999 FEW050 BKN100 26/03 Q1013 R05R/CLRD65 NOSIG
METAR:
2018/09/19 06:18
TAF TAF UAAA 190500Z 1906/2006 04005MPS 9999 BKN050CB BKN100 TX28/1909Z TN08/2001Z PROB40 
      TEMPO 1906/1912 TS 
      BECMG 1912/1913 17005MPS 
      TEMPO 1912/1922 3000 FU